sensor_id;sensor_type;location;lat;lon;timestamp;temperature;humidity
66522;SHT31;53349;53.538;8.584;2023-05-15T00:02:06;16.08;60.94
66522;SHT31;53349;53.538;8.584;2023-05-15T00:04:31;16.11;61.07
66522;SHT31;53349;53.538;8.584;2023-05-15T00:06:58;16.11;61.12
66522;SHT31;53349;53.538;8.584;2023-05-15T00:09:25;16.11;61.09
66522;SHT31;53349;53.538;8.584;2023-05-15T00:11:51;16.05;60.80
66522;SHT31;53349;53.538;8.584;2023-05-15T00:14:19;16.00;60.99
66522;SHT31;53349;53.538;8.584;2023-05-15T00:16:44;15.97;60.98
66522;SHT31;53349;53.538;8.584;2023-05-15T00:19:14;15.97;61.10
66522;SHT31;53349;53.538;8.584;2023-05-15T00:21:43;15.98;61.17
66522;SHT31;53349;53.538;8.584;2023-05-15T00:24:08;15.97;61.21
66522;SHT31;53349;53.538;8.584;2023-05-15T00:26:33;15.95;61.22
66522;SHT31;53349;53.538;8.584;2023-05-15T00:28:59;15.97;61.20
66522;SHT31;53349;53.538;8.584;2023-05-15T00:31:24;15.93;61.32
66522;SHT31;53349;53.538;8.584;2023-05-15T00:33:58;15.90;61.43
66522;SHT31;53349;53.538;8.584;2023-05-15T00:36:27;15.86;61.57
66522;SHT31;53349;53.538;8.584;2023-05-15T00:38:53;15.86;61.84
66522;SHT31;53349;53.538;8.584;2023-05-15T00:41:19;15.83;62.19
66522;SHT31;53349;53.538;8.584;2023-05-15T00:43:45;15.76;62.38
66522;SHT31;53349;53.538;8.584;2023-05-15T00:46:14;15.76;62.49
66522;SHT31;53349;53.538;8.584;2023-05-15T00:48:42;15.74;62.44
66522;SHT31;53349;53.538;8.584;2023-05-15T00:51:08;15.74;62.42
66522;SHT31;53349;53.538;8.584;2023-05-15T00:53:35;15.70;62.08
66522;SHT31;53349;53.538;8.584;2023-05-15T00:56:01;15.68;61.74
66522;SHT31;53349;53.538;8.584;2023-05-15T00:58:28;15.70;61.88
66522;SHT31;53349;53.538;8.584;2023-05-15T01:00:55;15.70;62.00
66522;SHT31;53349;53.538;8.584;2023-05-15T01:03:22;15.66;62.30
66522;SHT31;53349;53.538;8.584;2023-05-15T01:05:48;15.67;62.27
66522;SHT31;53349;53.538;8.584;2023-05-15T01:11:06;15.61;61.81
66522;SHT31;53349;53.538;8.584;2023-05-15T01:13:32;15.60;61.92
66522;SHT31;53349;53.538;8.584;2023-05-15T01:15:58;15.58;61.97
66522;SHT31;53349;53.538;8.584;2023-05-15T01:18:23;15.51;62.50
66522;SHT31;53349;53.538;8.584;2023-05-15T01:21:15;15.44;62.49
66522;SHT31;53349;53.538;8.584;2023-05-15T01:29:59;15.39;63.16
66522;SHT31;53349;53.538;8.584;2023-05-15T01:32:36;15.32;63.20
66522;SHT31;53349;53.538;8.584;2023-05-15T01:35:15;15.26;63.63
66522;SHT31;53349;53.538;8.584;2023-05-15T01:37:44;15.26;64.10
66522;SHT31;53349;53.538;8.584;2023-05-15T01:40:13;15.19;64.50
66522;SHT31;53349;53.538;8.584;2023-05-15T01:42:55;15.22;65.01
66522;SHT31;53349;53.538;8.584;2023-05-15T01:45:26;15.23;65.59
66522;SHT31;53349;53.538;8.584;2023-05-15T01:47:53;15.19;66.13
66522;SHT31;53349;53.538;8.584;2023-05-15T01:50:20;15.15;66.34
66522;SHT31;53349;53.538;8.584;2023-05-15T01:52:50;15.15;66.42
66522;SHT31;53349;53.538;8.584;2023-05-15T01:55:19;15.13;66.59
66522;SHT31;53349;53.538;8.584;2023-05-15T01:57:47;15.08;66.88
66522;SHT31;53349;53.538;8.584;2023-05-15T02:00:13;15.09;66.87
66522;SHT31;53349;53.538;8.584;2023-05-15T02:02:41;15.06;66.98
66522;SHT31;53349;53.538;8.584;2023-05-15T02:05:10;15.10;66.97
66522;SHT31;53349;53.538;8.584;2023-05-15T02:07:37;15.09;67.28
66522;SHT31;53349;53.538;8.584;2023-05-15T02:10:04;15.06;67.62
66522;SHT31;53349;53.538;8.584;2023-05-15T02:12:31;14.98;67.66
66522;SHT31;53349;53.538;8.584;2023-05-15T02:14:57;14.98;67.70
66522;SHT31;53349;53.538;8.584;2023-05-15T02:17:23;14.99;67.60
66522;SHT31;53349;53.538;8.584;2023-05-15T02:19:49;15.00;67.55
66522;SHT31;53349;53.538;8.584;2023-05-15T02:22:15;14.96;67.88
66522;SHT31;53349;53.538;8.584;2023-05-15T02:24:41;15.00;67.73
66522;SHT31;53349;53.538;8.584;2023-05-15T02:29:50;14.98;67.80
66522;SHT31;53349;53.538;8.584;2023-05-15T02:38:13;14.93;67.88
66522;SHT31;53349;53.538;8.584;2023-05-15T02:40:40;14.93;68.13
66522;SHT31;53349;53.538;8.584;2023-05-15T02:43:07;14.95;68.18
66522;SHT31;53349;53.538;8.584;2023-05-15T02:45:34;14.91;68.37
66522;SHT31;53349;53.538;8.584;2023-05-15T02:48:00;14.95;68.41
66522;SHT31;53349;53.538;8.584;2023-05-15T02:50:26;14.85;68.81
66522;SHT31;53349;53.538;8.584;2023-05-15T02:53:01;14.85;69.13
66522;SHT31;53349;53.538;8.584;2023-05-15T02:55:27;14.82;69.71
66522;SHT31;53349;53.538;8.584;2023-05-15T02:57:53;14.82;69.87
66522;SHT31;53349;53.538;8.584;2023-05-15T03:00:19;14.79;70.42
66522;SHT31;53349;53.538;8.584;2023-05-15T03:02:45;14.78;70.66
66522;SHT31;53349;53.538;8.584;2023-05-15T03:05:10;14.79;70.93
66522;SHT31;53349;53.538;8.584;2023-05-15T03:07:37;14.78;71.33
66522;SHT31;53349;53.538;8.584;2023-05-15T03:10:02;14.78;71.46
66522;SHT31;53349;53.538;8.584;2023-05-15T03:12:29;14.78;71.49
66522;SHT31;53349;53.538;8.584;2023-05-15T03:15:01;14.81;71.44
66522;SHT31;53349;53.538;8.584;2023-05-15T03:17:26;14.81;72.18
66522;SHT31;53349;53.538;8.584;2023-05-15T03:19:52;14.84;72.56
66522;SHT31;53349;53.538;8.584;2023-05-15T03:22:17;14.79;72.91
66522;SHT31;53349;53.538;8.584;2023-05-15T03:24:43;14.77;73.24
66522;SHT31;53349;53.538;8.584;2023-05-15T03:27:08;14.77;73.15
66522;SHT31;53349;53.538;8.584;2023-05-15T03:29:34;14.72;73.71
66522;SHT31;53349;53.538;8.584;2023-05-15T03:32:02;14.75;73.85
66522;SHT31;53349;53.538;8.584;2023-05-15T03:34:31;14.74;74.13
66522;SHT31;53349;53.538;8.584;2023-05-15T03:36:56;14.77;74.05
66522;SHT31;53349;53.538;8.584;2023-05-15T03:39:23;14.77;74.36
66522;SHT31;53349;53.538;8.584;2023-05-15T03:41:48;14.84;74.16
66522;SHT31;53349;53.538;8.584;2023-05-15T03:44:15;14.88;74.21
66522;SHT31;53349;53.538;8.584;2023-05-15T03:46:40;14.91;74.07
66522;SHT31;53349;53.538;8.584;2023-05-15T03:49:06;14.88;74.54
66522;SHT31;53349;53.538;8.584;2023-05-15T03:51:32;14.91;74.34
66522;SHT31;53349;53.538;8.584;2023-05-15T03:53:57;14.92;74.52
66522;SHT31;53349;53.538;8.584;2023-05-15T03:56:23;14.93;74.44
66522;SHT31;53349;53.538;8.584;2023-05-15T03:58:53;14.86;74.38
66522;SHT31;53349;53.538;8.584;2023-05-15T04:01:19;14.88;74.34
66522;SHT31;53349;53.538;8.584;2023-05-15T04:03:45;14.89;74.14
66522;SHT31;53349;53.538;8.584;2023-05-15T04:06:11;14.91;74.08
66522;SHT31;53349;53.538;8.584;2023-05-15T04:08:36;14.96;73.84
66522;SHT31;53349;53.538;8.584;2023-05-15T04:11:01;15.00;73.73
66522;SHT31;53349;53.538;8.584;2023-05-15T04:13:28;15.00;73.88
66522;SHT31;53349;53.538;8.584;2023-05-15T04:15:55;15.06;73.88
66522;SHT31;53349;53.538;8.584;2023-05-15T04:18:21;15.13;73.73
66522;SHT31;53349;53.538;8.584;2023-05-15T04:20:46;15.23;73.51
66522;SHT31;53349;53.538;8.584;2023-05-15T04:23:12;15.35;73.19
66522;SHT31;53349;53.538;8.584;2023-05-15T04:25:40;15.43;73.06
66522;SHT31;53349;53.538;8.584;2023-05-15T04:28:07;15.47;73.18
66522;SHT31;53349;53.538;8.584;2023-05-15T04:30:32;15.56;73.13
66522;SHT31;53349;53.538;8.584;2023-05-15T04:32:57;15.64;72.96
66522;SHT31;53349;53.538;8.584;2023-05-15T04:35:23;15.67;72.85
66522;SHT31;53349;53.538;8.584;2023-05-15T04:37:48;15.73;72.79
66522;SHT31;53349;53.538;8.584;2023-05-15T04:40:13;15.71;72.76
66522;SHT31;53349;53.538;8.584;2023-05-15T04:42:40;15.76;72.73
66522;SHT31;53349;53.538;8.584;2023-05-15T04:45:06;15.81;72.57
66522;SHT31;53349;53.538;8.584;2023-05-15T04:47:35;15.83;72.48
66522;SHT31;53349;53.538;8.584;2023-05-15T04:50:02;15.90;72.18
66522;SHT31;53349;53.538;8.584;2023-05-15T04:52:29;15.91;72.05
66522;SHT31;53349;53.538;8.584;2023-05-15T04:54:55;15.95;72.00
66522;SHT31;53349;53.538;8.584;2023-05-15T04:57:21;15.97;71.96
66522;SHT31;53349;53.538;8.584;2023-05-15T04:59:46;15.93;72.20
66522;SHT31;53349;53.538;8.584;2023-05-15T05:02:13;15.76;71.77
66522;SHT31;53349;53.538;8.584;2023-05-15T05:04:42;15.66;71.79
66522;SHT31;53349;53.538;8.584;2023-05-15T05:07:08;15.53;72.36
66522;SHT31;53349;53.538;8.584;2023-05-15T05:09:34;15.56;72.46
66522;SHT31;53349;53.538;8.584;2023-05-15T05:12:00;15.56;72.77
66522;SHT31;53349;53.538;8.584;2023-05-15T05:14:26;15.51;72.74
66522;SHT31;53349;53.538;8.584;2023-05-15T05:16:52;15.50;72.78
66522;SHT31;53349;53.538;8.584;2023-05-15T05:19:17;15.44;73.01
66522;SHT31;53349;53.538;8.584;2023-05-15T05:21:43;15.39;73.28
66522;SHT31;53349;53.538;8.584;2023-05-15T05:24:09;15.29;73.79
66522;SHT31;53349;53.538;8.584;2023-05-15T05:26:36;15.27;74.20
66522;SHT31;53349;53.538;8.584;2023-05-15T05:29:01;15.35;74.30
66522;SHT31;53349;53.538;8.584;2023-05-15T05:31:28;15.36;74.77
66522;SHT31;53349;53.538;8.584;2023-05-15T05:33:54;15.44;74.59
66522;SHT31;53349;53.538;8.584;2023-05-15T05:36:22;15.50;74.54
66522;SHT31;53349;53.538;8.584;2023-05-15T05:38:47;15.56;74.56
66522;SHT31;53349;53.538;8.584;2023-05-15T05:41:12;15.80;74.39
66522;SHT31;53349;53.538;8.584;2023-05-15T05:43:39;16.08;73.93
66522;SHT31;53349;53.538;8.584;2023-05-15T05:46:05;16.33;73.14
66522;SHT31;53349;53.538;8.584;2023-05-15T05:48:31;16.46;72.27
66522;SHT31;53349;53.538;8.584;2023-05-15T05:50:56;16.63;71.78
66522;SHT31;53349;53.538;8.584;2023-05-15T05:53:22;16.90;71.03
66522;SHT31;53349;53.538;8.584;2023-05-15T05:55:48;16.90;70.66
66522;SHT31;53349;53.538;8.584;2023-05-15T05:58:15;17.04;70.35
66522;SHT31;53349;53.538;8.584;2023-05-15T06:00:40;17.10;69.56
66522;SHT31;53349;53.538;8.584;2023-05-15T06:03:06;17.26;69.44
66522;SHT31;53349;53.538;8.584;2023-05-15T06:05:31;17.32;68.82
66522;SHT31;53349;53.538;8.584;2023-05-15T06:07:56;17.72;68.13
66522;SHT31;53349;53.538;8.584;2023-05-15T06:10:22;18.07;66.71
66522;SHT31;53349;53.538;8.584;2023-05-15T06:12:48;18.38;65.64
66522;SHT31;53349;53.538;8.584;2023-05-15T06:15:15;18.75;64.70
66522;SHT31;53349;53.538;8.584;2023-05-15T06:17:41;18.94;63.98
66522;SHT31;53349;53.538;8.584;2023-05-15T06:20:07;19.16;63.38
66522;SHT31;53349;53.538;8.584;2023-05-15T06:22:35;19.43;62.58
66522;SHT31;53349;53.538;8.584;2023-05-15T06:25:01;19.62;61.90
66522;SHT31;53349;53.538;8.584;2023-05-15T06:27:27;19.83;61.47
66522;SHT31;53349;53.538;8.584;2023-05-15T06:29:52;19.98;60.73
66522;SHT31;53349;53.538;8.584;2023-05-15T06:32:19;20.13;60.33
66522;SHT31;53349;53.538;8.584;2023-05-15T06:34:44;20.47;59.66
66522;SHT31;53349;53.538;8.584;2023-05-15T06:37:12;20.66;59.24
66522;SHT31;53349;53.538;8.584;2023-05-15T06:39:37;20.88;58.30
66522;SHT31;53349;53.538;8.584;2023-05-15T06:42:03;21.19;57.74
66522;SHT31;53349;53.538;8.584;2023-05-15T06:44:30;21.47;56.97
66522;SHT31;53349;53.538;8.584;2023-05-15T06:46:55;21.79;56.06
66522;SHT31;53349;53.538;8.584;2023-05-15T06:49:24;21.91;55.68
66522;SHT31;53349;53.538;8.584;2023-05-15T06:51:51;22.19;55.07
66522;SHT31;53349;53.538;8.584;2023-05-15T06:54:16;22.26;54.77
66522;SHT31;53349;53.538;8.584;2023-05-15T06:56:42;22.35;54.69
66522;SHT31;53349;53.538;8.584;2023-05-15T06:59:07;22.49;54.23
66522;SHT31;53349;53.538;8.584;2023-05-15T07:01:32;22.60;54.33
66522;SHT31;53349;53.538;8.584;2023-05-15T07:03:57;22.64;54.05
66522;SHT31;53349;53.538;8.584;2023-05-15T07:06:23;22.80;53.91
66522;SHT31;53349;53.538;8.584;2023-05-15T07:08:49;23.00;53.42
66522;SHT31;53349;53.538;8.584;2023-05-15T07:11:15;23.22;52.86
66522;SHT31;53349;53.538;8.584;2023-05-15T07:13:40;23.29;52.75
66522;SHT31;53349;53.538;8.584;2023-05-15T07:16:07;23.39;52.28
66522;SHT31;53349;53.538;8.584;2023-05-15T07:18:32;23.52;52.11
66522;SHT31;53349;53.538;8.584;2023-05-15T07:21:03;23.35;51.90
66522;SHT31;53349;53.538;8.584;2023-05-15T07:23:29;23.32;51.97
66522;SHT31;53349;53.538;8.584;2023-05-15T07:25:54;23.15;52.26
66522;SHT31;53349;53.538;8.584;2023-05-15T07:28:20;22.78;52.76
66522;SHT31;53349;53.538;8.584;2023-05-15T07:30:46;22.63;53.17
66522;SHT31;53349;53.538;8.584;2023-05-15T07:33:12;22.50;53.59
66522;SHT31;53349;53.538;8.584;2023-05-15T07:35:37;22.56;53.61
66522;SHT31;53349;53.538;8.584;2023-05-15T07:38:04;22.39;54.22
66522;SHT31;53349;53.538;8.584;2023-05-15T07:40:29;22.10;54.86
66522;SHT31;53349;53.538;8.584;2023-05-15T07:42:55;21.91;55.34
66522;SHT31;53349;53.538;8.584;2023-05-15T07:45:22;21.97;55.38
66522;SHT31;53349;53.538;8.584;2023-05-15T07:47:49;21.75;56.23
66522;SHT31;53349;53.538;8.584;2023-05-15T07:50:16;21.47;56.79
66522;SHT31;53349;53.538;8.584;2023-05-15T07:52:43;21.46;57.08
66522;SHT31;53349;53.538;8.584;2023-05-15T07:55:09;21.20;57.36
66522;SHT31;53349;53.538;8.584;2023-05-15T07:57:35;21.11;57.05
66522;SHT31;53349;53.538;8.584;2023-05-15T08:00:02;20.88;57.37
66522;SHT31;53349;53.538;8.584;2023-05-15T08:02:27;20.69;57.62
66522;SHT31;53349;53.538;8.584;2023-05-15T08:04:54;20.85;57.62
66522;SHT31;53349;53.538;8.584;2023-05-15T08:07:19;20.72;57.23
66522;SHT31;53349;53.538;8.584;2023-05-15T08:09:44;20.62;57.36
66522;SHT31;53349;53.538;8.584;2023-05-15T08:12:17;20.73;57.28
66522;SHT31;53349;53.538;8.584;2023-05-15T08:14:43;20.64;57.18
66522;SHT31;53349;53.538;8.584;2023-05-15T08:17:09;20.47;57.25
66522;SHT31;53349;53.538;8.584;2023-05-15T08:19:35;20.44;57.44
66522;SHT31;53349;53.538;8.584;2023-05-15T08:22:00;20.51;57.03
66522;SHT31;53349;53.538;8.584;2023-05-15T08:24:26;20.42;56.80
66522;SHT31;53349;53.538;8.584;2023-05-15T08:26:51;20.47;57.05
66522;SHT31;53349;53.538;8.584;2023-05-15T08:29:16;20.47;56.76
66522;SHT31;53349;53.538;8.584;2023-05-15T08:31:42;20.53;56.10
66522;SHT31;53349;53.538;8.584;2023-05-15T08:34:07;20.48;56.15
66522;SHT31;53349;53.538;8.584;2023-05-15T08:36:32;20.41;56.51
66522;SHT31;53349;53.538;8.584;2023-05-15T08:38:58;20.21;56.52
66522;SHT31;53349;53.538;8.584;2023-05-15T08:41:31;19.69;57.94
66522;SHT31;53349;53.538;8.584;2023-05-15T08:43:59;19.40;58.40
66522;SHT31;53349;53.538;8.584;2023-05-15T08:46:27;19.40;57.72
66522;SHT31;53349;53.538;8.584;2023-05-15T08:48:54;19.16;58.54
66522;SHT31;53349;53.538;8.584;2023-05-15T08:51:21;19.15;58.73
66522;SHT31;53349;53.538;8.584;2023-05-15T08:53:47;18.95;58.87
66522;SHT31;53349;53.538;8.584;2023-05-15T08:56:13;18.74;59.42
66522;SHT31;53349;53.538;8.584;2023-05-15T08:58:40;18.85;59.41
66522;SHT31;53349;53.538;8.584;2023-05-15T09:01:06;18.50;59.68
66522;SHT31;53349;53.538;8.584;2023-05-15T09:03:31;18.47;60.24
66522;SHT31;53349;53.538;8.584;2023-05-15T09:06:00;18.57;60.00
66522;SHT31;53349;53.538;8.584;2023-05-15T09:08:27;18.47;60.33
66522;SHT31;53349;53.538;8.584;2023-05-15T09:10:55;18.68;60.07
66522;SHT31;53349;53.538;8.584;2023-05-15T09:13:20;18.64;60.27
66522;SHT31;53349;53.538;8.584;2023-05-15T09:15:46;18.60;60.33
66522;SHT31;53349;53.538;8.584;2023-05-15T09:18:12;18.50;59.93
66522;SHT31;53349;53.538;8.584;2023-05-15T09:20:38;18.51;60.28
66522;SHT31;53349;53.538;8.584;2023-05-15T09:23:20;18.56;60.45
66522;SHT31;53349;53.538;8.584;2023-05-15T09:25:46;18.63;59.98
66522;SHT31;53349;53.538;8.584;2023-05-15T09:28:31;18.65;60.07
66522;SHT31;53349;53.538;8.584;2023-05-15T09:31:02;18.71;59.74
66522;SHT31;53349;53.538;8.584;2023-05-15T09:33:32;18.88;59.80
66522;SHT31;53349;53.538;8.584;2023-05-15T09:35:58;18.83;59.65
66522;SHT31;53349;53.538;8.584;2023-05-15T09:38:25;18.83;59.67
66522;SHT31;53349;53.538;8.584;2023-05-15T09:41:00;18.83;59.52
66522;SHT31;53349;53.538;8.584;2023-05-15T09:43:28;18.83;59.99
66522;SHT31;53349;53.538;8.584;2023-05-15T09:45:53;18.68;59.95
66522;SHT31;53349;53.538;8.584;2023-05-15T09:48:19;18.58;60.08
66522;SHT31;53349;53.538;8.584;2023-05-15T09:50:46;18.53;60.37
66522;SHT31;53349;53.538;8.584;2023-05-15T09:53:11;18.63;60.14
66522;SHT31;53349;53.538;8.584;2023-05-15T09:55:37;18.63;59.68
66522;SHT31;53349;53.538;8.584;2023-05-15T09:58:07;18.53;59.95
66522;SHT31;53349;53.538;8.584;2023-05-15T10:00:49;18.44;60.18
66522;SHT31;53349;53.538;8.584;2023-05-15T10:03:17;18.36;60.17
66522;SHT31;53349;53.538;8.584;2023-05-15T10:05:42;18.47;60.28
66522;SHT31;53349;53.538;8.584;2023-05-15T10:08:07;18.44;60.16
66522;SHT31;53349;53.538;8.584;2023-05-15T10:10:34;18.50;60.13
66522;SHT31;53349;53.538;8.584;2023-05-15T10:13:00;18.44;59.98
66522;SHT31;53349;53.538;8.584;2023-05-15T10:15:26;18.33;60.09
66522;SHT31;53349;53.538;8.584;2023-05-15T10:17:54;18.27;60.41
66522;SHT31;53349;53.538;8.584;2023-05-15T10:20:22;18.30;60.35
66522;SHT31;53349;53.538;8.584;2023-05-15T10:22:54;18.23;60.58
66522;SHT31;53349;53.538;8.584;2023-05-15T10:25:26;18.20;60.70
66522;SHT31;53349;53.538;8.584;2023-05-15T10:27:55;18.27;60.33
66522;SHT31;53349;53.538;8.584;2023-05-15T10:30:21;18.20;60.14
66522;SHT31;53349;53.538;8.584;2023-05-15T10:32:47;18.16;60.26
66522;SHT31;53349;53.538;8.584;2023-05-15T10:35:14;18.29;60.03
66522;SHT31;53349;53.538;8.584;2023-05-15T10:37:39;18.38;60.08
66522;SHT31;53349;53.538;8.584;2023-05-15T10:40:07;18.41;59.91
66522;SHT31;53349;53.538;8.584;2023-05-15T10:42:35;18.50;59.46
66522;SHT31;53349;53.538;8.584;2023-05-15T10:45:01;18.56;59.68
66522;SHT31;53349;53.538;8.584;2023-05-15T10:47:27;18.57;59.30
66522;SHT31;53349;53.538;8.584;2023-05-15T10:49:53;18.64;59.39
66522;SHT31;53349;53.538;8.584;2023-05-15T10:52:23;18.57;59.33
66522;SHT31;53349;53.538;8.584;2023-05-15T10:54:49;18.46;59.75
66522;SHT31;53349;53.538;8.584;2023-05-15T10:57:16;18.43;59.57
66522;SHT31;53349;53.538;8.584;2023-05-15T10:59:48;18.40;59.64
66522;SHT31;53349;53.538;8.584;2023-05-15T11:02:19;18.38;59.66
66522;SHT31;53349;53.538;8.584;2023-05-15T11:04:47;18.67;59.33
66522;SHT31;53349;53.538;8.584;2023-05-15T11:07:16;18.75;59.04
66522;SHT31;53349;53.538;8.584;2023-05-15T11:09:43;18.64;58.52
66522;SHT31;53349;53.538;8.584;2023-05-15T11:12:09;18.58;59.10
66522;SHT31;53349;53.538;8.584;2023-05-15T11:15:24;18.67;59.20
66522;SHT31;53349;53.538;8.584;2023-05-15T11:17:30;18.81;58.66
66522;SHT31;53349;53.538;8.584;2023-05-15T11:19:57;18.71;58.96
66522;SHT31;53349;53.538;8.584;2023-05-15T11:25:09;18.68;59.13
66522;SHT31;53349;53.538;8.584;2023-05-15T11:27:43;18.81;58.93
66522;SHT31;53349;53.538;8.584;2023-05-15T11:32:43;18.92;58.19
66522;SHT31;53349;53.538;8.584;2023-05-15T11:35:11;18.78;58.54
66522;SHT31;53349;53.538;8.584;2023-05-15T11:37:52;18.84;58.52
66522;SHT31;53349;53.538;8.584;2023-05-15T11:41:44;18.95;58.12
66522;SHT31;53349;53.538;8.584;2023-05-15T11:43:39;19.05;57.94
66522;SHT31;53349;53.538;8.584;2023-05-15T11:46:06;19.09;58.13
66522;SHT31;53349;53.538;8.584;2023-05-15T11:48:33;19.09;57.96
66522;SHT31;53349;53.538;8.584;2023-05-15T11:51:01;19.02;57.93
66522;SHT31;53349;53.538;8.584;2023-05-15T11:53:28;18.95;57.83
66522;SHT31;53349;53.538;8.584;2023-05-15T11:55:53;18.98;57.85
66522;SHT31;53349;53.538;8.584;2023-05-15T11:58:22;19.14;57.65
66522;SHT31;53349;53.538;8.584;2023-05-15T12:00:50;19.07;57.52
66522;SHT31;53349;53.538;8.584;2023-05-15T12:03:17;19.01;57.66
66522;SHT31;53349;53.538;8.584;2023-05-15T12:05:43;18.94;57.64
66522;SHT31;53349;53.538;8.584;2023-05-15T12:08:11;18.87;57.90
66522;SHT31;53349;53.538;8.584;2023-05-15T12:11:00;18.89;57.82
66522;SHT31;53349;53.538;8.584;2023-05-15T12:13:26;18.94;57.88
66522;SHT31;53349;53.538;8.584;2023-05-15T12:15:56;18.85;57.80
66522;SHT31;53349;53.538;8.584;2023-05-15T12:18:23;18.75;58.07
66522;SHT31;53349;53.538;8.584;2023-05-15T12:20:51;18.74;58.04
66522;SHT31;53349;53.538;8.584;2023-05-15T12:23:17;18.72;58.36
66522;SHT31;53349;53.538;8.584;2023-05-15T12:25:45;18.75;58.63
66522;SHT31;53349;53.538;8.584;2023-05-15T12:28:11;18.72;58.16
66522;SHT31;53349;53.538;8.584;2023-05-15T12:30:41;18.48;57.66
66522;SHT31;53349;53.538;8.584;2023-05-15T12:33:09;18.33;58.65
66522;SHT31;53349;53.538;8.584;2023-05-15T12:35:36;18.38;58.78
66522;SHT31;53349;53.538;8.584;2023-05-15T12:38:02;18.40;58.70
66522;SHT31;53349;53.538;8.584;2023-05-15T12:40:28;18.40;58.74
66522;SHT31;53349;53.538;8.584;2023-05-15T12:42:53;18.25;58.71
66522;SHT31;53349;53.538;8.584;2023-05-15T12:45:19;18.19;58.64
66522;SHT31;53349;53.538;8.584;2023-05-15T12:47:47;18.12;58.68
66522;SHT31;53349;53.538;8.584;2023-05-15T12:50:18;18.23;59.00
66522;SHT31;53349;53.538;8.584;2023-05-15T12:52:53;18.22;58.84
66522;SHT31;53349;53.538;8.584;2023-05-15T12:55:32;18.29;58.92
66522;SHT31;53349;53.538;8.584;2023-05-15T12:58:09;18.26;58.60
66522;SHT31;53349;53.538;8.584;2023-05-15T13:00:40;18.33;58.67
66522;SHT31;53349;53.538;8.584;2023-05-15T13:03:10;18.22;58.68
66522;SHT31;53349;53.538;8.584;2023-05-15T13:05:41;18.34;58.66
66522;SHT31;53349;53.538;8.584;2023-05-15T13:08:15;18.17;58.43
66522;SHT31;53349;53.538;8.584;2023-05-15T13:10:44;18.20;58.74
66522;SHT31;53349;53.538;8.584;2023-05-15T13:13:09;18.10;58.86
66522;SHT31;53349;53.538;8.584;2023-05-15T13:15:43;18.12;58.89
66522;SHT31;53349;53.538;8.584;2023-05-15T13:18:14;18.07;58.62
66522;SHT31;53349;53.538;8.584;2023-05-15T13:20:42;18.06;58.87
66522;SHT31;53349;53.538;8.584;2023-05-15T13:23:13;18.09;58.90
66522;SHT31;53349;53.538;8.584;2023-05-15T13:25:38;17.96;58.73
66522;SHT31;53349;53.538;8.584;2023-05-15T13:28:05;17.95;59.15
66522;SHT31;53349;53.538;8.584;2023-05-15T13:30:32;18.06;59.08
66522;SHT31;53349;53.538;8.584;2023-05-15T13:32:59;17.98;58.95
66522;SHT31;53349;53.538;8.584;2023-05-15T13:35:24;17.96;59.06
66522;SHT31;53349;53.538;8.584;2023-05-15T13:37:51;18.03;59.22
66522;SHT31;53349;53.538;8.584;2023-05-15T13:40:21;17.99;58.93
66522;SHT31;53349;53.538;8.584;2023-05-15T13:42:46;17.96;58.94
66522;SHT31;53349;53.538;8.584;2023-05-15T13:45:14;17.88;59.00
66522;SHT31;53349;53.538;8.584;2023-05-15T13:47:40;17.75;59.01
66522;SHT31;53349;53.538;8.584;2023-05-15T13:50:09;17.69;58.89
66522;SHT31;53349;53.538;8.584;2023-05-15T13:52:35;17.58;59.35
66522;SHT31;53349;53.538;8.584;2023-05-15T13:55:00;17.44;59.39
66522;SHT31;53349;53.538;8.584;2023-05-15T13:57:27;17.52;59.41
66522;SHT31;53349;53.538;8.584;2023-05-15T13:59:52;17.52;59.19
66522;SHT31;53349;53.538;8.584;2023-05-15T14:02:20;17.44;59.24
66522;SHT31;53349;53.538;8.584;2023-05-15T14:04:47;17.35;59.33
66522;SHT31;53349;53.538;8.584;2023-05-15T14:07:13;17.37;59.63
66522;SHT31;53349;53.538;8.584;2023-05-15T14:09:39;17.38;59.21
66522;SHT31;53349;53.538;8.584;2023-05-15T14:12:04;17.34;59.13
66522;SHT31;53349;53.538;8.584;2023-05-15T14:14:30;17.28;59.28
66522;SHT31;53349;53.538;8.584;2023-05-15T14:16:57;17.31;59.24
66522;SHT31;53349;53.538;8.584;2023-05-15T14:19:25;17.26;59.40
66522;SHT31;53349;53.538;8.584;2023-05-15T14:21:50;17.14;59.48
66522;SHT31;53349;53.538;8.584;2023-05-15T14:24:15;17.14;59.61
66522;SHT31;53349;53.538;8.584;2023-05-15T14:26:42;17.14;59.47
66522;SHT31;53349;53.538;8.584;2023-05-15T14:29:07;17.14;59.44
66522;SHT31;53349;53.538;8.584;2023-05-15T14:31:34;17.18;59.47
66522;SHT31;53349;53.538;8.584;2023-05-15T14:34:00;17.17;59.58
66522;SHT31;53349;53.538;8.584;2023-05-15T14:36:25;17.14;59.40
66522;SHT31;53349;53.538;8.584;2023-05-15T14:38:51;17.07;59.34
66522;SHT31;53349;53.538;8.584;2023-05-15T14:41:16;17.16;59.63
66522;SHT31;53349;53.538;8.584;2023-05-15T14:43:41;17.27;59.37
66522;SHT31;53349;53.538;8.584;2023-05-15T14:46:08;17.31;59.25
66522;SHT31;53349;53.538;8.584;2023-05-15T14:48:34;17.23;59.15
66522;SHT31;53349;53.538;8.584;2023-05-15T14:50:59;17.16;59.30
66522;SHT31;53349;53.538;8.584;2023-05-15T14:53:25;17.07;59.13
66522;SHT31;53349;53.538;8.584;2023-05-15T14:55:51;17.02;59.11
66522;SHT31;53349;53.538;8.584;2023-05-15T14:58:16;17.04;59.41
66522;SHT31;53349;53.538;8.584;2023-05-15T15:00:41;16.94;59.63
66522;SHT31;53349;53.538;8.584;2023-05-15T15:03:06;17.00;59.61
66522;SHT31;53349;53.538;8.584;2023-05-15T15:05:32;16.88;59.65
66522;SHT31;53349;53.538;8.584;2023-05-15T15:08:08;16.91;59.48
66522;SHT31;53349;53.538;8.584;2023-05-15T15:10:38;16.91;59.92
66522;SHT31;53349;53.538;8.584;2023-05-15T15:13:04;16.87;59.75
66522;SHT31;53349;53.538;8.584;2023-05-15T15:15:33;16.86;59.82
66522;SHT31;53349;53.538;8.584;2023-05-15T15:17:59;16.83;60.27
66522;SHT31;53349;53.538;8.584;2023-05-15T15:20:26;16.83;60.29
66522;SHT31;53349;53.538;8.584;2023-05-15T15:22:52;16.79;59.90
66522;SHT31;53349;53.538;8.584;2023-05-15T15:25:19;16.75;60.10
66522;SHT31;53349;53.538;8.584;2023-05-15T15:27:45;16.76;60.06
66522;SHT31;53349;53.538;8.584;2023-05-15T15:30:11;16.72;59.82
66522;SHT31;53349;53.538;8.584;2023-05-15T15:32:37;16.70;59.96
66522;SHT31;53349;53.538;8.584;2023-05-15T15:35:03;16.65;59.88
66522;SHT31;53349;53.538;8.584;2023-05-15T15:37:30;16.57;59.87
66522;SHT31;53349;53.538;8.584;2023-05-15T15:39:58;16.59;59.82
66522;SHT31;53349;53.538;8.584;2023-05-15T15:42:24;16.51;60.04
66522;SHT31;53349;53.538;8.584;2023-05-15T15:44:50;16.60;59.75
66522;SHT31;53349;53.538;8.584;2023-05-15T15:47:18;16.63;59.70
66522;SHT31;53349;53.538;8.584;2023-05-15T15:49:43;16.63;59.40
66522;SHT31;53349;53.538;8.584;2023-05-15T15:52:08;16.57;59.30
66522;SHT31;53349;53.538;8.584;2023-05-15T15:54:35;16.51;59.73